Ansley, Mississippi
Current Conditions -  °F | °C
As of 8:54 AM on Thursday 30 Oct 2014 (Local Time) from KHSA Reporting Station
Clear Clear  
Wind Chill: 59°   Ceiling: Unl
Heat Index: 59°   Visibility: 10mi
Dew Point: 41°   Wind: 7mph
Humidity: 51%   Direction: 30°NNE
Pressure: 30.12"   Gusts: NA
Location:  30.2253°N, 89.4838°W
Report Text: KHSA 301354Z 03006KT 10SM CLR 15/05 A3012
Loading
Personal Weather Stations






























Interactive Weather Map
Tropical Storm Tracking
New forecast layout! Learn more

10-Day Weather Forecast

Advertisements
Track Severe Weather on mobile